createdAt,value
2018-06-11T00:00:56.179Z,0.00
2018-06-11T00:01:56.121Z,0.00
2018-06-11T00:02:56.041Z,0.00
2018-06-11T00:03:55.982Z,0.00
2018-06-11T00:04:55.899Z,0.00
2018-06-11T00:05:55.837Z,0.00
2018-06-11T00:06:55.761Z,0.00
2018-06-11T00:07:55.692Z,0.00
2018-06-11T00:08:55.615Z,0.00
2018-06-11T00:09:55.549Z,0.00
2018-06-11T00:10:55.476Z,0.00
2018-06-11T00:11:55.409Z,0.00
2018-06-11T00:12:55.329Z,0.00
2018-06-11T00:13:55.267Z,0.00
2018-06-11T00:14:55.186Z,0.00
2018-06-11T00:15:56.122Z,0.00
2018-06-11T00:16:55.042Z,0.00
2018-06-11T00:17:54.981Z,0.00
2018-06-11T00:18:54.903Z,0.00
2018-06-11T00:19:54.841Z,0.00
2018-06-11T00:20:54.755Z,0.00
2018-06-11T00:21:54.694Z,0.00
2018-06-11T00:22:54.659Z,0.00
2018-06-11T00:23:55.554Z,0.00
2018-06-11T00:24:54.474Z,0.00
2018-06-11T00:25:54.414Z,0.00
2018-06-11T00:26:54.359Z,0.00
2018-06-11T00:27:54.271Z,0.00
2018-06-11T00:28:54.186Z,0.00
2018-06-11T00:29:54.128Z,0.00
2018-06-11T00:30:54.047Z,0.00
2018-06-11T00:31:53.984Z,0.00
2018-06-11T00:32:53.904Z,0.00
2018-06-11T00:33:53.837Z,0.00
2018-06-11T00:34:53.762Z,0.00
2018-06-11T00:35:53.697Z,0.00
2018-06-11T00:36:53.620Z,0.00
2018-06-11T00:37:53.558Z,0.00
2018-06-11T00:38:53.471Z,0.00
2018-06-11T00:39:53.413Z,0.00
2018-06-11T00:40:53.332Z,0.00
2018-06-11T00:41:54.267Z,0.00
2018-06-11T00:42:53.188Z,0.00
2018-06-11T00:43:53.130Z,0.00
2018-06-11T00:44:53.052Z,0.00
2018-06-11T00:45:52.982Z,0.00
2018-06-11T00:46:52.903Z,0.00
2018-06-11T00:47:52.837Z,0.00
2018-06-11T00:48:52.760Z,0.00
2018-06-11T00:49:52.695Z,0.00
2018-06-11T00:50:52.624Z,0.00
2018-06-11T00:51:52.552Z,0.00
2018-06-11T00:52:52.474Z,0.00
2018-06-11T00:53:52.412Z,0.00
2018-06-11T00:54:52.329Z,0.00
2018-06-11T00:55:52.271Z,0.00
2018-06-11T00:56:52.187Z,0.00
2018-06-11T00:57:52.120Z,0.00
2018-06-11T00:58:52.044Z,0.00
2018-06-11T00:59:51.979Z,0.00
2018-06-11T01:00:51.897Z,0.00
2018-06-11T01:01:51.836Z,0.00
2018-06-11T01:02:51.755Z,0.00
2018-06-11T01:03:51.692Z,0.00
2018-06-11T01:04:51.608Z,0.00
2018-06-11T01:05:51.551Z,0.00
2018-06-11T01:06:51.472Z,0.00
2018-06-11T01:07:51.409Z,0.00
2018-06-11T01:08:51.326Z,0.00
2018-06-11T01:09:52.260Z,0.00
2018-06-11T01:10:51.181Z,0.00
2018-06-11T01:11:51.123Z,0.00
2018-06-11T01:12:51.038Z,0.00
2018-06-11T01:13:50.979Z,0.00
2018-06-11T01:14:50.902Z,0.00
2018-06-11T01:15:50.831Z,0.00
2018-06-11T01:16:50.754Z,0.00
2018-06-11T01:17:50.692Z,0.00
2018-06-11T01:18:50.613Z,0.00
2018-06-11T01:19:50.547Z,0.00
2018-06-11T01:20:50.468Z,0.00
2018-06-11T01:21:50.401Z,0.00
2018-06-11T01:22:50.323Z,0.00
2018-06-11T01:23:50.258Z,0.00
2018-06-11T01:24:50.182Z,0.00
2018-06-11T01:25:50.121Z,0.00
2018-06-11T01:26:50.038Z,0.00
2018-06-11T01:27:49.971Z,0.00
2018-06-11T01:28:49.892Z,0.00
2018-06-11T01:29:49.826Z,0.00
2018-06-11T01:30:49.749Z,0.00
2018-06-11T01:31:49.683Z,0.00
2018-06-11T01:32:49.604Z,0.00
2018-06-11T01:33:49.540Z,0.00
2018-06-11T01:34:49.460Z,0.00
2018-06-11T01:35:49.393Z,0.00
2018-06-11T01:36:49.321Z,0.00
2018-06-11T01:37:49.257Z,0.00
2018-06-11T01:38:49.171Z,0.00
2018-06-11T01:39:49.103Z,0.00
2018-06-11T01:40:49.044Z,0.00
2018-06-11T01:41:48.958Z,0.00
2018-06-11T01:42:48.892Z,0.00
2018-06-11T01:43:48.815Z,0.00
2018-06-11T01:44:48.749Z,0.00
2018-06-11T01:45:48.674Z,0.00
2018-06-11T01:46:48.615Z,0.00
2018-06-11T01:47:48.532Z,0.00
2018-06-11T01:48:48.462Z,0.00
2018-06-11T01:49:48.387Z,0.00
2018-06-11T01:50:48.324Z,0.00
2018-06-11T01:51:48.241Z,0.00
2018-06-11T01:52:48.173Z,0.00
2018-06-11T01:53:48.096Z,0.00
2018-06-11T01:54:48.033Z,0.00
2018-06-11T01:55:47.951Z,0.00
2018-06-11T01:56:47.886Z,0.00
2018-06-11T01:57:47.808Z,0.00
2018-06-11T01:58:47.742Z,0.00
2018-06-11T01:59:47.662Z,0.00
2018-06-11T02:00:48.593Z,0.00
2018-06-11T02:01:47.520Z,0.00
2018-06-11T02:02:47.457Z,0.00
2018-06-11T02:03:47.376Z,0.00
2018-06-11T02:04:47.310Z,0.00
2018-06-11T02:05:47.233Z,0.00
2018-06-11T02:06:47.191Z,0.00
2018-06-11T02:07:47.091Z,0.00
2018-06-11T02:08:47.022Z,0.00
2018-06-11T02:09:46.943Z,0.00
2018-06-11T02:10:46.876Z,0.00
2018-06-11T02:11:46.804Z,0.00
2018-06-11T02:12:46.731Z,0.00
2018-06-11T02:13:46.658Z,0.00
2018-06-11T02:14:46.589Z,0.00
2018-06-11T02:15:46.510Z,0.00
2018-06-11T02:16:46.443Z,0.00
2018-06-11T02:17:46.363Z,0.00
2018-06-11T02:18:46.300Z,0.00
2018-06-11T02:19:46.220Z,0.00
2018-06-11T02:20:46.170Z,0.00
2018-06-11T02:21:46.072Z,0.00
2018-06-11T02:22:46.013Z,0.00
2018-06-11T02:23:45.932Z,0.00
2018-06-11T02:24:45.874Z,0.00
2018-06-11T02:25:45.789Z,0.00
2018-06-11T02:26:45.725Z,0.00
2018-06-11T02:27:45.642Z,0.00
2018-06-11T02:28:45.584Z,0.00
2018-06-11T02:29:45.497Z,0.00
2018-06-11T02:30:46.434Z,0.00
2018-06-11T02:31:45.406Z,0.00
2018-06-11T02:32:45.288Z,0.00
2018-06-11T02:33:45.213Z,0.00
2018-06-11T02:34:45.149Z,0.00
2018-06-11T02:35:45.071Z,0.00
2018-06-11T02:36:45.003Z,0.00
2018-06-11T02:37:44.930Z,0.00
2018-06-11T02:38:44.854Z,0.00
2018-06-11T02:39:44.777Z,0.00
2018-06-11T02:40:44.710Z,0.00
2018-06-11T02:41:44.633Z,0.00
2018-06-11T02:42:44.565Z,0.00
2018-06-11T02:43:44.486Z,0.00
2018-06-11T02:44:44.421Z,0.00
2018-06-11T02:45:44.341Z,0.00
2018-06-11T02:46:44.279Z,0.00
2018-06-11T02:47:44.195Z,0.00
2018-06-11T02:48:44.132Z,0.00
2018-06-11T02:49:44.054Z,0.00
2018-06-11T02:50:43.989Z,0.00
2018-06-11T02:51:43.904Z,0.00
2018-06-11T02:52:43.847Z,0.00
2018-06-11T02:53:43.761Z,0.00
2018-06-11T02:54:43.694Z,0.00
2018-06-11T02:55:43.620Z,0.00
2018-06-11T02:56:44.556Z,0.00
2018-06-11T02:57:43.472Z,0.00
2018-06-11T02:58:43.407Z,0.00
2018-06-11T02:59:43.327Z,0.00
2018-06-11T03:00:43.264Z,0.00
2018-06-11T03:01:43.183Z,0.00
2018-06-11T03:02:43.120Z,0.00
2018-06-11T03:03:43.045Z,0.00
2018-06-11T03:04:42.972Z,0.00
2018-06-11T03:05:42.888Z,0.00
2018-06-11T03:06:42.828Z,0.00
2018-06-11T03:07:42.751Z,0.00
2018-06-11T03:08:42.690Z,0.00
2018-06-11T03:09:42.602Z,0.00
2018-06-11T03:10:42.538Z,0.00
2018-06-11T03:11:42.457Z,0.00
2018-06-11T03:12:42.394Z,0.00
2018-06-11T03:13:42.308Z,0.00
2018-06-11T03:14:42.255Z,0.00
2018-06-11T03:15:42.173Z,0.00
2018-06-11T03:16:42.105Z,0.00
2018-06-11T03:17:42.029Z,0.00
2018-06-11T03:18:41.958Z,0.00
2018-06-11T03:19:41.874Z,0.00
2018-06-11T03:20:41.811Z,0.00
2018-06-11T03:21:41.733Z,0.00
2018-06-11T03:22:41.670Z,0.00
2018-06-11T03:23:41.612Z,0.00
2018-06-11T03:24:41.525Z,0.00
2018-06-11T03:25:41.448Z,0.00
2018-06-11T03:26:41.376Z,0.00
2018-06-11T03:27:41.295Z,0.00
2018-06-11T03:28:41.231Z,0.00
2018-06-11T03:29:41.150Z,0.00
2018-06-11T03:30:41.084Z,0.00
2018-06-11T03:31:41.009Z,0.00
2018-06-11T03:32:40.944Z,0.00
2018-06-11T03:33:40.861Z,0.00
2018-06-11T03:34:40.800Z,0.00
2018-06-11T03:35:40.775Z,0.00
2018-06-11T03:36:40.651Z,0.00
2018-06-11T03:37:40.569Z,0.00
2018-06-11T03:38:40.506Z,0.00
2018-06-11T03:39:40.424Z,0.00
2018-06-11T03:40:40.352Z,0.00
2018-06-11T03:41:40.282Z,0.00
2018-06-11T03:42:40.219Z,0.00
2018-06-11T03:43:40.133Z,0.00
2018-06-11T03:44:40.077Z,5.63
2018-06-11T03:45:39.987Z,5.63
2018-06-11T03:46:40.013Z,5.63
2018-06-11T03:47:39.844Z,5.63
2018-06-11T03:48:39.835Z,5.63
2018-06-11T03:49:39.694Z,5.63
2018-06-11T03:50:39.733Z,5.63
2018-06-11T03:51:39.552Z,5.63
2018-06-11T03:52:39.548Z,5.63
2018-06-11T03:53:39.410Z,5.63
2018-06-11T03:54:39.454Z,5.63
2018-06-11T03:55:39.266Z,5.63
2018-06-11T03:56:39.196Z,5.63
2018-06-11T03:57:39.121Z,5.63
2018-06-11T03:58:39.068Z,5.63
2018-06-11T03:59:38.971Z,5.63
2018-06-11T04:00:39.014Z,5.63
2018-06-11T04:01:38.829Z,5.63
2018-06-11T04:02:38.790Z,5.63
2018-06-11T04:03:38.684Z,5.63
2018-06-11T04:04:38.698Z,5.63
2018-06-11T04:05:38.534Z,5.63
2018-06-11T04:06:38.509Z,5.63
2018-06-11T04:07:38.388Z,5.63
2018-06-11T04:08:38.418Z,5.63
2018-06-11T04:09:38.245Z,5.63
2018-06-11T04:10:38.275Z,5.63
2018-06-11T04:11:38.102Z,5.63
2018-06-11T04:12:38.141Z,5.63
2018-06-11T04:13:37.955Z,5.63
2018-06-11T04:14:38.892Z,5.63
2018-06-11T04:15:37.811Z,5.63
2018-06-11T04:16:37.754Z,5.63
2018-06-11T04:17:37.663Z,5.63
2018-06-11T04:18:37.663Z,5.63
2018-06-11T04:19:37.521Z,5.63
2018-06-11T04:20:37.453Z,5.63
2018-06-11T04:21:37.372Z,5.63
2018-06-11T04:22:37.385Z,5.63
2018-06-11T04:23:37.226Z,5.63
2018-06-11T04:24:37.194Z,5.63
2018-06-11T04:25:38.040Z,5.63
2018-06-11T04:26:37.019Z,5.63
2018-06-11T04:27:37.142Z,5.63
2018-06-11T04:28:36.920Z,5.63
2018-06-11T04:29:36.789Z,5.63
2018-06-11T04:30:36.879Z,5.63
2018-06-11T04:31:36.643Z,11.25
2018-06-11T04:32:36.633Z,11.25
2018-06-11T04:33:36.504Z,11.25
2018-06-11T04:34:36.441Z,11.25
2018-06-11T04:35:36.354Z,11.25
2018-06-11T04:36:36.352Z,11.25
2018-06-11T04:37:36.213Z,11.25
2018-06-11T04:38:36.144Z,11.25
2018-06-11T04:39:36.083Z,11.25
2018-06-11T04:40:36.074Z,11.25
2018-06-11T04:41:35.920Z,11.25
2018-06-11T04:42:35.882Z,11.25
2018-06-11T04:43:35.778Z,11.25
2018-06-11T04:44:35.793Z,11.25
2018-06-11T04:45:35.631Z,11.25
2018-06-11T04:46:35.601Z,11.25
2018-06-11T04:47:35.486Z,11.25
2018-06-11T04:48:36.417Z,11.25
2018-06-11T04:49:35.340Z,11.25
2018-06-11T04:50:40.135Z,11.25
2018-06-11T04:51:35.192Z,16.88
2018-06-11T04:52:35.232Z,16.88
2018-06-11T04:53:35.048Z,16.88
2018-06-11T04:54:35.040Z,16.88
2018-06-11T04:55:34.909Z,16.88
2018-06-11T04:56:34.951Z,16.88
2018-06-11T04:57:34.763Z,16.88
2018-06-11T04:58:34.697Z,16.88
2018-06-11T04:59:34.624Z,16.88
2018-06-11T05:00:34.568Z,16.88
2018-06-11T05:01:34.472Z,16.88
2018-06-11T05:02:34.408Z,16.88
2018-06-11T05:03:34.329Z,16.88
2018-06-11T05:04:34.288Z,16.88
2018-06-11T05:05:34.188Z,16.88
2018-06-11T05:06:34.121Z,16.88
2018-06-11T05:07:34.038Z,16.88
2018-06-11T05:08:33.976Z,16.88
2018-06-11T05:09:33.893Z,16.88
2018-06-11T05:10:33.831Z,16.88
2018-06-11T05:11:33.750Z,16.88
2018-06-11T05:12:33.689Z,16.88
2018-06-11T05:13:33.627Z,16.88
2018-06-11T05:14:33.545Z,16.88
2018-06-11T05:15:33.460Z,16.88
2018-06-11T05:16:33.397Z,22.50
2018-06-11T05:17:33.315Z,22.50
2018-06-11T05:18:33.254Z,22.50
2018-06-11T05:19:33.173Z,22.50
2018-06-11T05:20:33.111Z,22.50
2018-06-11T05:21:33.028Z,22.50
2018-06-11T05:22:32.965Z,22.50
2018-06-11T05:23:32.887Z,22.50
2018-06-11T05:24:32.817Z,22.50
2018-06-11T05:25:32.746Z,22.50
2018-06-11T05:26:32.671Z,22.50
2018-06-11T05:27:32.600Z,28.13
2018-06-11T05:28:32.532Z,28.13
2018-06-11T05:29:32.455Z,28.13
2018-06-11T05:30:32.387Z,28.13
2018-06-11T05:31:32.310Z,28.13
2018-06-11T05:32:32.242Z,28.13
2018-06-11T05:33:32.167Z,28.13
2018-06-11T05:34:32.110Z,28.13
2018-06-11T05:35:32.026Z,28.13
2018-06-11T05:36:31.948Z,28.13
2018-06-11T05:37:31.949Z,28.13
2018-06-11T05:38:31.807Z,28.13
2018-06-11T05:39:31.736Z,33.75
2018-06-11T05:40:31.779Z,33.75
2018-06-11T05:41:31.592Z,33.75
2018-06-11T05:42:31.572Z,33.75
2018-06-11T05:43:31.448Z,33.75
2018-06-11T05:44:31.483Z,33.75
2018-06-11T05:45:31.302Z,33.75
2018-06-11T05:46:31.296Z,33.75
2018-06-11T05:47:31.165Z,33.75
2018-06-11T05:48:31.202Z,33.75
2018-06-11T05:49:31.020Z,33.75
2018-06-11T05:50:31.010Z,33.75
2018-06-11T05:51:30.879Z,33.75
2018-06-11T05:52:30.922Z,33.75
2018-06-11T05:53:30.759Z,33.75
2018-06-11T05:54:30.729Z,33.75
2018-06-11T05:55:30.604Z,33.75
2018-06-11T05:56:30.539Z,33.75
2018-06-11T05:57:30.456Z,33.75
2018-06-11T05:58:30.449Z,39.38
2018-06-11T05:59:30.307Z,39.38
2018-06-11T06:00:30.259Z,39.38
2018-06-11T06:01:30.161Z,39.38
2018-06-11T06:02:30.169Z,39.38
2018-06-11T06:03:30.026Z,33.75
2018-06-11T06:04:29.978Z,39.38
2018-06-11T06:05:29.887Z,39.38
2018-06-11T06:06:29.888Z,39.38
2018-06-11T06:07:29.742Z,39.38
2018-06-11T06:08:29.695Z,45.00
2018-06-11T06:09:29.601Z,45.00
2018-06-11T06:10:29.608Z,45.00
2018-06-11T06:11:29.458Z,45.00
2018-06-11T06:12:29.417Z,45.00
2018-06-11T06:13:29.317Z,45.00
2018-06-11T06:14:29.330Z,50.63
2018-06-11T06:15:29.173Z,50.63
2018-06-11T06:16:29.138Z,50.63
2018-06-11T06:17:29.029Z,50.63
2018-06-11T06:18:29.047Z,56.25
2018-06-11T06:19:28.893Z,56.25
2018-06-11T06:20:28.855Z,56.25
2018-06-11T06:21:28.747Z,50.63
2018-06-11T06:22:28.769Z,56.25
2018-06-11T06:23:28.612Z,56.25
2018-06-11T06:24:28.576Z,61.88
2018-06-11T06:25:28.467Z,61.88
2018-06-11T06:26:28.488Z,61.88
2018-06-11T06:27:28.331Z,67.50
2018-06-11T06:28:28.297Z,61.88
2018-06-11T06:29:28.186Z,67.50
2018-06-11T06:30:28.203Z,67.50
2018-06-11T06:31:28.048Z,67.50
2018-06-11T06:32:28.056Z,67.50
2018-06-11T06:33:27.904Z,67.50
2018-06-11T06:34:27.956Z,73.13
2018-06-11T06:35:27.766Z,73.13
2018-06-11T06:36:27.766Z,73.13
2018-06-11T06:37:27.624Z,67.50
2018-06-11T06:38:27.643Z,73.13
2018-06-11T06:39:27.524Z,67.50
2018-06-11T06:40:27.513Z,73.13
2018-06-11T06:41:27.349Z,78.75
2018-06-11T06:42:27.367Z,78.75
2018-06-11T06:43:27.208Z,78.75
2018-06-11T06:44:27.174Z,78.75
2018-06-11T06:45:27.071Z,78.75
2018-06-11T06:46:27.087Z,73.13
2018-06-11T06:47:26.926Z,78.75
2018-06-11T06:48:26.891Z,84.38
2018-06-11T06:49:26.792Z,78.75
2018-06-11T06:50:26.805Z,84.38
2018-06-11T06:51:26.651Z,90.00
2018-06-11T06:52:26.612Z,90.00
2018-06-11T06:53:26.513Z,90.00
2018-06-11T06:54:26.525Z,90.00
2018-06-11T06:55:26.379Z,90.00
2018-06-11T06:56:26.334Z,90.00
2018-06-11T06:57:26.233Z,90.00
2018-06-11T06:58:26.244Z,90.00
2018-06-11T06:59:26.098Z,95.63
2018-06-11T07:00:26.053Z,95.63
2018-06-11T07:01:25.961Z,101.25
2018-06-11T07:02:25.967Z,95.63
2018-06-11T07:03:25.826Z,101.25
2018-06-11T07:04:25.773Z,101.25
2018-06-11T07:05:25.680Z,106.88
2018-06-11T07:06:25.684Z,106.88
2018-06-11T07:07:25.543Z,106.88
2018-06-11T07:08:25.494Z,106.88
2018-06-11T07:09:25.409Z,106.88
2018-06-11T07:10:25.408Z,106.88
2018-06-11T07:11:25.272Z,112.50
2018-06-11T07:12:25.316Z,112.50
2018-06-11T07:13:25.129Z,112.50
2018-06-11T07:14:25.124Z,118.13
2018-06-11T07:15:25.000Z,123.75
2018-06-11T07:16:25.036Z,129.38
2018-06-11T07:17:24.857Z,129.38
2018-06-11T07:18:24.843Z,135.00
2018-06-11T07:19:24.721Z,135.00
2018-06-11T07:20:24.757Z,140.63
2018-06-11T07:21:24.587Z,140.63
2018-06-11T07:22:24.565Z,146.25
2018-06-11T07:23:24.449Z,146.25
2018-06-11T07:24:24.473Z,146.25
2018-06-11T07:25:24.313Z,151.88
2018-06-11T07:26:24.283Z,157.50
2018-06-11T07:27:24.180Z,163.13
2018-06-11T07:28:24.194Z,163.13
2018-06-11T07:29:24.043Z,168.75
2018-06-11T07:30:24.003Z,168.75
2018-06-11T07:31:23.940Z,168.75
2018-06-11T07:32:23.914Z,174.38
2018-06-11T07:33:23.772Z,174.38
2018-06-11T07:34:23.717Z,174.38
2018-06-11T07:35:23.636Z,168.75
2018-06-11T07:36:23.634Z,174.38
2018-06-11T07:37:23.502Z,180.00
2018-06-11T07:38:23.544Z,185.63
2018-06-11T07:39:23.366Z,185.63
2018-06-11T07:40:23.308Z,191.25
2018-06-11T07:41:23.230Z,191.25
2018-06-11T07:42:23.265Z,191.25
2018-06-11T07:43:23.095Z,191.25
2018-06-11T07:44:23.033Z,185.63
2018-06-11T07:45:22.962Z,191.25
2018-06-11T07:46:22.985Z,196.88
2018-06-11T07:47:22.831Z,196.88
2018-06-11T07:48:22.791Z,202.50
2018-06-11T07:49:22.693Z,202.50
2018-06-11T07:50:22.701Z,202.50
2018-06-11T07:51:22.571Z,208.13
2018-06-11T07:52:22.514Z,208.13
2018-06-11T07:53:22.428Z,208.13
2018-06-11T07:54:22.425Z,208.13
2018-06-11T07:55:22.302Z,202.50
2018-06-11T07:56:22.337Z,202.50
2018-06-11T07:57:22.162Z,202.50
2018-06-11T07:58:22.142Z,196.88
2018-06-11T07:59:22.031Z,191.25
2018-06-11T08:00:22.056Z,202.50
2018-06-11T08:01:21.919Z,202.50
2018-06-11T08:02:21.867Z,208.13
2018-06-11T08:03:21.765Z,202.50
2018-06-11T08:04:21.773Z,191.25
2018-06-11T08:05:21.636Z,202.50
2018-06-11T08:06:21.684Z,208.13
2018-06-11T08:07:21.507Z,208.13
2018-06-11T08:08:21.492Z,213.75
2018-06-11T08:09:21.368Z,208.13
2018-06-11T08:10:21.404Z,213.75
2018-06-11T08:11:21.237Z,219.38
2018-06-11T08:12:21.223Z,219.38
2018-06-11T08:13:21.172Z,219.38
2018-06-11T08:14:21.129Z,219.38
2018-06-11T08:15:20.977Z,219.38
2018-06-11T08:16:20.933Z,219.38
2018-06-11T08:17:20.852Z,213.75
2018-06-11T08:18:20.850Z,219.38
2018-06-11T08:19:20.714Z,219.38
2018-06-11T08:20:20.755Z,213.75
2018-06-11T08:21:20.585Z,208.13
2018-06-11T08:22:20.565Z,208.13
2018-06-11T08:23:20.453Z,208.13
2018-06-11T08:24:20.475Z,213.75
2018-06-11T08:25:20.326Z,213.75
2018-06-11T08:26:20.284Z,213.75
2018-06-11T08:27:20.210Z,219.38
2018-06-11T08:28:20.196Z,219.38
2018-06-11T08:29:20.066Z,219.38
2018-06-11T08:30:20.102Z,208.13
2018-06-11T08:31:19.932Z,219.38
2018-06-11T08:32:19.919Z,225.00
2018-06-11T08:33:19.803Z,225.00
2018-06-11T08:34:19.827Z,225.00
2018-06-11T08:35:19.677Z,225.00
2018-06-11T08:36:19.636Z,230.63
2018-06-11T08:37:19.553Z,236.25
2018-06-11T08:38:19.547Z,241.88
2018-06-11T08:39:19.417Z,247.50
2018-06-11T08:40:19.460Z,253.13
2018-06-11T08:41:19.288Z,258.75
2018-06-11T08:42:19.265Z,258.75
2018-06-11T08:43:19.227Z,219.38
2018-06-11T08:44:19.180Z,213.75
2018-06-11T08:45:19.040Z,140.63
2018-06-11T08:46:18.989Z,129.38
2018-06-11T08:47:18.907Z,123.75
2018-06-11T08:48:18.898Z,146.25
2018-06-11T08:49:18.775Z,219.38
2018-06-11T08:50:18.808Z,258.75
2018-06-11T08:51:18.644Z,286.88
2018-06-11T08:52:18.617Z,286.88
2018-06-11T08:53:18.519Z,196.88
2018-06-11T08:54:18.537Z,213.75
2018-06-11T08:55:18.395Z,168.75
2018-06-11T08:56:18.444Z,174.38
2018-06-11T08:57:18.265Z,118.13
2018-06-11T08:58:18.246Z,106.88
2018-06-11T08:59:18.141Z,101.25
2018-06-11T09:00:18.160Z,95.63
2018-06-11T09:01:18.013Z,95.63
2018-06-11T09:02:17.967Z,90.00
2018-06-11T09:03:17.883Z,84.38
2018-06-11T09:04:17.881Z,84.38
2018-06-11T09:05:17.757Z,78.75
2018-06-11T09:06:17.788Z,78.75
2018-06-11T09:07:17.630Z,73.13
2018-06-11T09:08:17.598Z,73.13
2018-06-11T09:09:17.499Z,73.13
2018-06-11T09:10:17.508Z,73.13
2018-06-11T09:11:17.378Z,73.13
2018-06-11T09:12:17.420Z,73.13
2018-06-11T09:13:17.250Z,78.75
2018-06-11T09:14:17.230Z,78.75
2018-06-11T09:15:17.120Z,78.75
2018-06-11T09:16:17.141Z,78.75
2018-06-11T09:17:16.992Z,78.75
2018-06-11T09:18:17.104Z,78.75
2018-06-11T09:19:16.869Z,78.75
2018-06-11T09:20:16.859Z,78.75
2018-06-11T09:21:16.735Z,78.75
2018-06-11T09:22:16.772Z,78.75
2018-06-11T09:23:16.606Z,78.75
2018-06-11T09:24:16.578Z,84.38
2018-06-11T09:25:16.478Z,84.38
2018-06-11T09:26:16.491Z,84.38
2018-06-11T09:27:16.352Z,84.38
2018-06-11T09:28:16.402Z,84.38
2018-06-11T09:29:16.221Z,90.00
2018-06-11T09:30:16.210Z,90.00
2018-06-11T09:31:16.091Z,90.00
2018-06-11T09:32:16.122Z,90.00
2018-06-11T09:33:15.968Z,84.38
2018-06-11T09:34:15.930Z,84.38
2018-06-11T09:35:15.839Z,84.38
2018-06-11T09:36:15.842Z,78.75
2018-06-11T09:37:15.712Z,78.75
2018-06-11T09:38:15.825Z,73.13
2018-06-11T09:39:15.583Z,67.50
2018-06-11T09:40:15.559Z,67.50
2018-06-11T09:41:15.458Z,67.50
2018-06-11T09:42:15.475Z,61.88
2018-06-11T09:43:15.344Z,61.88
2018-06-11T09:44:15.316Z,61.88
2018-06-11T09:45:15.202Z,61.88
2018-06-11T09:46:15.192Z,61.88
2018-06-11T09:47:15.078Z,61.88
2018-06-11T09:48:15.108Z,61.88
2018-06-11T09:49:14.992Z,61.88
2018-06-11T09:50:14.911Z,61.88
2018-06-11T09:51:14.812Z,61.88
2018-06-11T09:52:14.823Z,61.88
2018-06-11T09:53:14.686Z,61.88
2018-06-11T09:54:14.731Z,61.88
2018-06-11T09:55:14.564Z,61.88
2018-06-11T09:56:14.503Z,61.88
2018-06-11T09:57:14.427Z,61.88
2018-06-11T09:58:14.453Z,67.50
2018-06-11T09:59:14.293Z,67.50
2018-06-11T10:00:14.262Z,67.50
2018-06-11T10:01:14.170Z,73.13
2018-06-11T10:02:14.112Z,73.13
2018-06-11T10:03:14.041Z,73.13
2018-06-11T10:04:14.085Z,78.75
2018-06-11T10:05:13.910Z,78.75
2018-06-11T10:06:13.891Z,84.38
2018-06-11T10:07:13.789Z,90.00
2018-06-11T10:08:13.805Z,95.63
2018-06-11T10:09:13.662Z,101.25
2018-06-11T10:10:13.622Z,106.88
2018-06-11T10:11:13.538Z,118.13
2018-06-11T10:12:13.553Z,129.38
2018-06-11T10:13:13.395Z,140.63
2018-06-11T10:14:13.435Z,151.88
2018-06-11T10:15:13.267Z,168.75
2018-06-11T10:16:13.244Z,157.50
2018-06-11T10:17:13.142Z,151.88
2018-06-11T10:18:13.155Z,146.25
2018-06-11T10:19:13.056Z,135.00
2018-06-11T10:20:12.965Z,129.38
2018-06-11T10:21:12.883Z,129.38
2018-06-11T10:22:12.878Z,135.00
2018-06-11T10:23:12.758Z,129.38
2018-06-11T10:24:12.785Z,123.75
2018-06-11T10:25:12.624Z,123.75
2018-06-11T10:26:12.595Z,123.75
2018-06-11T10:27:12.494Z,123.75
2018-06-11T10:28:12.508Z,129.38
2018-06-11T10:29:12.375Z,129.38
2018-06-11T10:30:12.417Z,135.00
2018-06-11T10:31:12.241Z,146.25
2018-06-11T10:32:12.228Z,146.25
2018-06-11T10:33:12.112Z,146.25
2018-06-11T10:34:12.136Z,151.88
2018-06-11T10:35:11.986Z,168.75
2018-06-11T10:36:11.947Z,163.13
2018-06-11T10:37:11.857Z,163.13
2018-06-11T10:38:11.926Z,163.13
2018-06-11T10:39:11.787Z,168.75
2018-06-11T10:40:11.836Z,168.75
2018-06-11T10:41:11.602Z,174.38
2018-06-11T10:42:11.646Z,168.75
2018-06-11T10:43:11.476Z,168.75
2018-06-11T10:44:11.557Z,168.75
2018-06-11T10:45:11.355Z,180.00
2018-06-11T10:46:11.470Z,180.00
2018-06-11T10:47:11.220Z,174.38
2018-06-11T10:48:11.279Z,163.13
2018-06-11T10:49:11.092Z,196.88
2018-06-11T10:50:11.189Z,174.38
2018-06-11T10:51:10.965Z,191.25
2018-06-11T10:52:11.000Z,225.00
2018-06-11T10:53:10.835Z,140.63
2018-06-11T10:54:10.837Z,151.88
2018-06-11T10:55:10.712Z,213.75
2018-06-11T10:56:10.754Z,213.75
2018-06-11T10:57:10.583Z,213.75
2018-06-11T10:58:10.630Z,213.75
2018-06-11T10:59:10.461Z,78.75
2018-06-11T11:00:10.469Z,78.75
2018-06-11T11:01:10.333Z,84.38
2018-06-11T11:02:10.381Z,202.50
2018-06-11T11:03:10.206Z,180.00
2018-06-11T11:04:10.188Z,196.88
2018-06-11T11:05:10.080Z,196.88
2018-06-11T11:06:10.100Z,191.25
2018-06-11T11:07:09.956Z,191.25
2018-06-11T11:08:10.008Z,191.25
2018-06-11T11:09:09.828Z,123.75
2018-06-11T11:10:09.820Z,67.50
2018-06-11T11:11:09.706Z,135.00
2018-06-11T11:12:09.730Z,185.63
2018-06-11T11:13:09.630Z,191.25
2018-06-11T11:14:09.542Z,196.88
2018-06-11T11:15:09.456Z,196.88
2018-06-11T11:16:09.451Z,196.88
2018-06-11T11:17:09.325Z,191.25
2018-06-11T11:18:09.359Z,180.00
2018-06-11T11:19:09.202Z,191.25
2018-06-11T11:20:09.175Z,191.25
2018-06-11T11:21:09.076Z,185.63
2018-06-11T11:22:09.081Z,180.00
2018-06-11T11:23:08.953Z,174.38
2018-06-11T11:24:08.993Z,180.00
2018-06-11T11:25:08.833Z,168.75
2018-06-11T11:26:08.797Z,180.00
2018-06-11T11:27:08.706Z,118.13
2018-06-11T11:28:08.715Z,146.25
2018-06-11T11:29:08.577Z,106.88
2018-06-11T11:30:08.624Z,73.13
2018-06-11T11:31:08.455Z,67.50
2018-06-11T11:32:08.432Z,95.63
2018-06-11T11:33:08.327Z,202.50
2018-06-11T11:34:08.345Z,196.88
2018-06-11T11:35:08.206Z,191.25
2018-06-11T11:36:08.256Z,191.25
2018-06-11T11:37:08.085Z,196.88
2018-06-11T11:38:08.073Z,196.88
2018-06-11T11:39:07.957Z,191.25
2018-06-11T11:40:07.974Z,185.63
2018-06-11T11:41:07.828Z,174.38
2018-06-11T11:42:07.892Z,202.50
2018-06-11T11:43:07.707Z,196.88
2018-06-11T11:44:07.695Z,101.25
2018-06-11T11:45:07.580Z,73.13
2018-06-11T11:46:07.604Z,73.13
2018-06-11T11:47:07.458Z,78.75
2018-06-11T11:48:07.417Z,180.00
2018-06-11T11:49:07.334Z,78.75
2018-06-11T11:50:07.322Z,67.50
2018-06-11T11:51:07.229Z,61.88
2018-06-11T11:52:07.238Z,61.88
2018-06-11T11:53:07.087Z,61.88
2018-06-11T11:54:07.042Z,61.88
2018-06-11T11:55:06.963Z,61.88
2018-06-11T11:56:06.956Z,67.50
2018-06-11T11:57:06.835Z,73.13
2018-06-11T11:58:06.869Z,73.13
2018-06-11T11:59:06.711Z,73.13
2018-06-11T12:00:06.679Z,84.38
2018-06-11T12:01:06.589Z,90.00
2018-06-11T12:02:06.586Z,73.13
2018-06-11T12:03:06.462Z,67.50
2018-06-11T12:04:06.499Z,67.50
2018-06-11T12:05:06.342Z,61.88
2018-06-11T12:06:06.304Z,61.88
2018-06-11T12:07:06.214Z,61.88
2018-06-11T12:08:06.216Z,67.50
2018-06-11T12:09:06.089Z,73.13
2018-06-11T12:10:06.130Z,73.13
2018-06-11T12:11:05.964Z,73.13
2018-06-11T12:12:05.939Z,73.13
2018-06-11T12:13:05.838Z,78.75
2018-06-11T12:14:05.858Z,95.63
2018-06-11T12:15:05.712Z,208.13
2018-06-11T12:16:05.759Z,106.88
2018-06-11T12:17:05.588Z,118.13
2018-06-11T12:18:05.569Z,90.00
2018-06-11T12:19:05.467Z,90.00
2018-06-11T12:20:05.479Z,90.00
2018-06-11T12:21:05.338Z,106.88
2018-06-11T12:22:05.392Z,90.00
2018-06-11T12:23:05.210Z,73.13
2018-06-11T12:24:05.204Z,73.13
2018-06-11T12:25:05.096Z,73.13
2018-06-11T12:26:05.113Z,73.13
2018-06-11T12:27:04.960Z,78.75
2018-06-11T12:28:04.919Z,78.75
2018-06-11T12:29:04.834Z,84.38
2018-06-11T12:30:04.832Z,84.38
2018-06-11T12:31:04.705Z,84.38
2018-06-11T12:32:04.743Z,90.00
2018-06-11T12:33:04.588Z,151.88
2018-06-11T12:34:04.552Z,163.13
2018-06-11T12:35:04.456Z,185.63
2018-06-11T12:36:04.464Z,118.13
2018-06-11T12:37:04.333Z,112.50
2018-06-11T12:38:04.373Z,112.50
2018-06-11T12:39:04.204Z,118.13
2018-06-11T12:40:04.184Z,118.13
2018-06-11T12:41:04.081Z,123.75
2018-06-11T12:42:04.099Z,123.75
2018-06-11T12:43:03.953Z,123.75
2018-06-11T12:44:04.006Z,118.13
2018-06-11T12:45:03.827Z,123.75
2018-06-11T12:46:03.814Z,140.63
2018-06-11T12:47:03.704Z,135.00
2018-06-11T12:48:03.730Z,123.75
2018-06-11T12:49:03.575Z,140.63
2018-06-11T12:50:03.533Z,123.75
2018-06-11T12:51:03.448Z,129.38
2018-06-11T12:52:03.445Z,151.88
2018-06-11T12:53:03.323Z,118.13